GMFO/OUD METAR and TAF weather

Enter ICAO airport designator
Station Type Date Time Source
GMFO METAR 2022/06/30 00:00 UTC NOAA

GMFO 300000Z 15002KT CAVOK 17/14 Q1015 NOSIG


Station Type Date Time Source
GMFO Decoded METAR 2022/06/30 00:00 UTC NOAA

Oujda, Morocco (GMFO) 34-47N 001-56W 470M
Jun 29, 2022 - 08:00 PM EDT / 2022.06.30 0000 UTC
Wind: from the SSE (150 degrees) at 2 MPH (2 KT):0
Visibility: greater than 7 mile(s):0
Temperature: 62 F (17 C)
Dew Point: 57 F (14 C)
Relative Humidity: 82%
Pressure (altimeter): 29.97 in. Hg (1015 hPa)
ob: GMFO 300000Z 15002KT CAVOK 17/14 Q1015 NOSIG
cycle: 0

Station Type Date Time Source
GMFO TAF 2022/06/29 18:18 UTC NOAA

TAF GMFO 291700Z 2918/3024 36016KT CAVOK
TEMPO 3000/3007 18004KT

Example: see airport list